Tabellarische Übersicht vom Samstag, den 20.04.2024

Oder anderes Datum wählen:






max 10,5°C 96,0% 6,6°C 1019,9hPa 7,0°C 36,4km/h (5Bft) 14,3km/h 355° (N) ∑3,3l/m² 90,000klx ∑131,6min
min 4,3°C 67,0% 3,7°C 1011,8hPa -5,0°C 2,5km/h (1Bft) 1,3km/h 5° (N) ∑3,3l/m² 0,000klx ∑131,6min
Ø 6,4°C 89,0% 4,7°C 1017,2hPa 1,0°C 15,4km/h (3Bft) 6,6km/h 308° (NW) ∑3,3l/m² 18,000klx ∑131,6min
Zeit Temperatur Luftfeuchte Taupunkt Luftdruck Windchill Windböen Windgeschwindigkeit Windrichtung Regen Helligkeit Regenzeit
21:30 6,1°C 95,7% 5,5°C 1019,5hPa 6,1°C 9,4km/h (2Bft) 3,5km/h 350° (N) 0,0l/m² 0,001klx 0,0min
21:25 6,1°C 95,8% 5,5°C 1019,5hPa 6,1°C 15,1km/h (3Bft) 5,7km/h 342° (N) 0,0l/m² 0,001klx 0,0min
21:20 6,2°C 95,8% 5,5°C 1019,5hPa 5,3°C 15,8km/h (3Bft) 7,4km/h 341° (N) 0,0l/m² 0,001klx 0,0min
21:15 6,3°C 96,0% 5,7°C 1019,4hPa 5,8°C 17,3km/h (3Bft) 6,9km/h 333° (NW) 0,0l/m² 0,002klx 0,0min
21:10 6,3°C 96,1% 5,7°C 1019,3hPa 6,3°C 10,8km/h (2Bft) 5,3km/h 336° (NW) 0,0l/m² 0,004klx 0,0min
21:05 6,3°C 96,1% 5,7°C 1019,3hPa 3,8°C 21,2km/h (4Bft) 9,6km/h 335° (NW) 0,0l/m² 0,007klx 0,0min
21:00 6,4°C 96,2% 5,9°C 1019,3hPa 6,4°C 16,9km/h (3Bft) 6,2km/h 329° (NW) 0,0l/m² 0,018klx 0,0min
20:55 6,4°C 96,2% 5,9°C 1019,3hPa 6,4°C 7,6km/h (2Bft) 3,5km/h 322° (NW) 0,0l/m² 0,044klx 0,0min
20:50 6,4°C 96,1% 5,8°C 1019,3hPa 6,4°C 11,9km/h (2Bft) 3,8km/h 327° (NW) 0,0l/m² 0,083klx 0,0min
20:45 6,4°C 96,1% 5,8°C 1019,2hPa 6,4°C 10,4km/h (2Bft) 3,6km/h 318° (NW) 0,0l/m² 0,155klx 0,0min
20:40 6,3°C 96,0% 5,7°C 1019,2hPa 6,3°C 10,8km/h (2Bft) 3,7km/h 309° (NW) 0,0l/m² 0,205klx 0,0min
20:35 6,3°C 95,9% 5,7°C 1019,2hPa 6,3°C 11,2km/h (2Bft) 5,6km/h 325° (NW) 0,0l/m² 0,298klx 0,0min
20:30 6,2°C 95,7% 5,6°C 1019,2hPa 6,2°C 15,5km/h (3Bft) 6,2km/h 321° (NW) 0,0l/m² 0,350klx 0,0min
20:25 6,2°C 95,7% 5,5°C 1019,1hPa 6,2°C 6,8km/h (2Bft) 2,8km/h 330° (NW) 0,0l/m² 0,469klx 0,0min
20:20 6,1°C 95,6% 5,5°C 1019,0hPa 6,1°C 2,5km/h (1Bft) 1,3km/h 84° (O) 0,0l/m² 0,700klx 0,0min
20:15 6,1°C 95,6% 5,4°C 1019,0hPa 6,1°C 5,0km/h (1Bft) 2,4km/h 120° (SO) 0,0l/m² 0,996klx 0,0min
20:10 6,0°C 95,4% 5,3°C 1019,0hPa 6,0°C 3,6km/h (1Bft) 2,1km/h 186° (S) 0,0l/m² 1,228klx 0,0min
20:05 5,9°C 95,1% 5,2°C 1019,0hPa 5,9°C 2,5km/h (1Bft) 1,5km/h 13° (N) 0,0l/m² 1,508klx 0,0min
20:00 5,9°C 94,9% 5,1°C 1019,0hPa 5,9°C 4,3km/h (1Bft) 1,9km/h 306° (NW) 0,0l/m² 2,040klx 0,0min
19:55 5,8°C 94,4% 5,0°C 1019,0hPa 5,8°C 3,2km/h (1Bft) 1,6km/h 335° (NW) 0,0l/m² 2,639klx 0,0min
19:50 5,8°C 94,1% 5,0°C 1019,0hPa 5,8°C 4,7km/h (1Bft) 2,2km/h 347° (N) 0,0l/m² 3,015klx 0,0min
19:45 5,9°C 93,7% 5,0°C 1019,0hPa 5,9°C 7,2km/h (2Bft) 3,3km/h 329° (NW) 0,0l/m² 3,272klx 0,0min
19:40 6,0°C 93,2% 5,0°C 1018,9hPa 6,0°C 7,9km/h (2Bft) 4,0km/h 333° (NW) 0,0l/m² 3,137klx 0,0min
19:35 6,1°C 92,9% 5,1°C 1018,9hPa 6,1°C 11,9km/h (2Bft) 6,4km/h 354° (N) 0,0l/m² 3,558klx 0,0min
19:30 6,2°C 92,4% 5,1°C 1018,9hPa 5,7°C 13,3km/h (3Bft) 7,0km/h 6° (N) 0,0l/m² 2,989klx 3,8min
19:25 6,4°C 91,5% 5,1°C 1018,9hPa 6,0°C 19,1km/h (3Bft) 6,9km/h 346° (N) 0,0l/m² 3,334klx 5,0min
19:20 6,6°C 90,7% 5,2°C 1019,0hPa 3,7°C 20,5km/h (4Bft) 10,3km/h 338° (N) 0,5l/m² 2,999klx 5,0min
19:15 6,9°C 89,5% 5,3°C 1019,0hPa 5,3°C 16,6km/h (3Bft) 8,5km/h 327° (NW) 0,1l/m² 1,702klx 5,0min
19:10 7,4°C 88,6% 5,6°C 1018,9hPa 4,6°C 20,5km/h (4Bft) 10,2km/h 314° (NW) 0,2l/m² 3,095klx 5,0min
19:05 7,8°C 87,2% 5,8°C 1018,9hPa 4,4°C 32,4km/h (5Bft) 11,2km/h 308° (NW) 0,5l/m² 1,151klx 5,0min
19:00 8,1°C 85,0% 5,7°C 1018,6hPa 8,1°C 7,6km/h (2Bft) 3,4km/h 273° (W) 0,2l/m² 0,633klx 5,0min
18:55 8,4°C 82,1% 5,5°C 1018,6hPa 8,4°C 13,3km/h (3Bft) 5,5km/h 265° (W) 0,0l/m² 1,500klx 2,8min
18:50 8,8°C 80,5% 5,6°C 1018,7hPa 8,8°C 8,3km/h (2Bft) 4,4km/h 271° (W) 0,0l/m² 2,941klx 0,0min
18:45 8,9°C 80,5% 5,7°C 1018,6hPa 8,9°C 10,4km/h (2Bft) 4,8km/h 284° (W) 0,0l/m² 12,728klx 0,0min
18:40 8,9°C 79,4% 5,5°C 1018,7hPa 8,9°C 12,2km/h (3Bft) 4,7km/h 272° (W) 0,0l/m² 17,496klx 0,0min
18:35 8,8°C 81,3% 5,8°C 1018,7hPa 8,8°C 16,2km/h (3Bft) 5,5km/h 236° (SW) 0,0l/m² 19,641klx 0,0min
18:30 8,7°C 79,5% 5,3°C 1018,8hPa 8,5°C 16,9km/h (3Bft) 6,6km/h 282° (W) 0,0l/m² 17,859klx 0,0min
18:25 8,5°C 81,2% 5,5°C 1018,8hPa 8,0°C 20,9km/h (4Bft) 7,1km/h 292° (W) 0,0l/m² 21,412klx 0,0min
18:20 8,3°C 81,2% 5,3°C 1018,8hPa 7,9°C 22,7km/h (4Bft) 6,9km/h 293° (NW) 0,0l/m² 18,693klx 0,0min
18:15 8,1°C 83,7% 5,5°C 1018,9hPa 6,5°C 19,8km/h (3Bft) 8,4km/h 298° (NW) 0,0l/m² 16,030klx 0,0min
18:10 8,0°C 85,1% 5,6°C 1019,0hPa 6,7°C 28,1km/h (4Bft) 8,0km/h 293° (NW) 0,0l/m² 12,363klx 1,3min
18:05 8,0°C 83,4% 5,4°C 1019,0hPa 8,0°C 13,7km/h (3Bft) 5,7km/h 314° (NW) 0,0l/m² 10,500klx 5,0min
18:00 8,5°C 77,9% 4,8°C 1019,1hPa 5,9°C 25,6km/h (4Bft) 10,1km/h 309° (NW) 0,2l/m² 8,415klx 5,0min
17:55 8,9°C 74,1% 4,5°C 1019,1hPa 6,2°C 34,6km/h (5Bft) 10,3km/h 308° (NW) 0,0l/m² 2,391klx 1,3min
17:50 9,1°C 70,8% 4,1°C 1019,0hPa 9,1°C 13,3km/h (3Bft) 5,6km/h 297° (NW) 0,0l/m² 4,959klx 0,0min
17:45 9,2°C 70,1% 4,1°C 1019,0hPa 6,4°C 25,9km/h (4Bft) 10,7km/h 304° (NW) 0,0l/m² 8,520klx 0,0min
17:40 9,5°C 68,8% 4,0°C 1019,1hPa 8,4°C 22,3km/h (4Bft) 7,9km/h 292° (W) 0,0l/m² 11,997klx 0,0min
17:35 9,8°C 69,0% 4,3°C 1019,1hPa 9,6°C 23,4km/h (4Bft) 6,7km/h 276° (W) 0,0l/m² 16,359klx 0,0min
17:30 10,0°C 66,8% 4,0°C 1019,1hPa 7,5°C 28,8km/h (4Bft) 10,2km/h 302° (NW) 0,0l/m² 25,208klx 0,0min
17:25 10,5°C 67,6% 4,7°C 1019,1hPa 6,1°C 36,4km/h (5Bft) 14,1km/h 310° (NW) 0,0l/m² 37,280klx 0,0min
17:20 10,4°C 68,9% 4,9°C 1019,1hPa 9,3°C 21,2km/h (4Bft) 8,0km/h 283° (W) 0,0l/m² 55,208klx 0,0min
17:15 10,1°C 70,5% 5,0°C 1019,1hPa 8,8°C 25,9km/h (4Bft) 8,3km/h 289° (W) 0,0l/m² 56,917klx 0,0min
17:10 9,9°C 71,7% 5,0°C 1019,2hPa 6,9°C 26,3km/h (4Bft) 11,1km/h 297° (NW) 0,0l/m² 51,286klx 0,0min
17:05 8,9°C 74,9% 4,7°C 1019,1hPa 6,5°C 25,9km/h (4Bft) 9,9km/h 301° (NW) 0,0l/m² 55,688klx 0,0min
17:00 8,4°C 76,7% 4,5°C 1019,1hPa 6,5°C 24,1km/h (4Bft) 9,0km/h 300° (NW) 0,0l/m² 23,237klx 0,0min
16:55 8,5°C 79,0% 5,1°C 1019,2hPa 5,6°C 27,4km/h (4Bft) 10,7km/h 312° (NW) 0,0l/m² 6,172klx 0,0min
16:50 8,9°C 83,7% 6,3°C 1019,2hPa 7,3°C 25,2km/h (4Bft) 8,5km/h 322° (NW) 0,0l/m² 8,211klx 0,0min
16:45 8,8°C 84,7% 6,4°C 1019,3hPa 8,8°C 11,9km/h (2Bft) 5,1km/h 303° (NW) 0,0l/m² 34,204klx 0,0min
16:40 8,4°C 87,4% 6,5°C 1019,4hPa 8,1°C 20,5km/h (4Bft) 6,9km/h 252° (W) 0,0l/m² 76,431klx 0,0min
16:35 7,9°C 89,7% 6,3°C 1019,5hPa 7,9°C 9,4km/h (2Bft) 4,9km/h 353° (N) 0,0l/m² 67,555klx 0,0min
16:30 7,6°C 89,4% 5,9°C 1019,5hPa 7,6°C 13,0km/h (3Bft) 6,2km/h 15° (N) 0,0l/m² 15,108klx 1,7min
16:25 7,3°C 89,4% 5,6°C 1019,5hPa 7,3°C 11,9km/h (2Bft) 4,9km/h 343° (N) 0,0l/m² 27,582klx 5,0min
16:20 7,1°C 87,1% 5,1°C 1019,6hPa 5,9°C 15,8km/h (3Bft) 7,9km/h 13° (N) 0,2l/m² 8,890klx 5,0min
16:15 7,1°C 84,6% 4,7°C 1019,7hPa 6,8°C 12,6km/h (3Bft) 6,9km/h 29° (NO) 0,1l/m² 4,252klx 3,5min
16:10 7,7°C 81,7% 4,7°C 1019,7hPa 6,9°C 14,8km/h (3Bft) 7,4km/h 355° (N) 0,1l/m² 3,028klx 5,0min
16:05 8,2°C 79,2% 4,8°C 1019,7hPa 4,4°C 23,4km/h (4Bft) 12,2km/h 5° (N) 0,0l/m² 2,556klx 0,4min
16:00 8,5°C 77,1% 4,7°C 1019,6hPa 5,6°C 23,0km/h (4Bft) 10,6km/h 302° (NW) 0,0l/m² 4,174klx 0,0min
15:55 9,1°C 74,3% 4,8°C 1019,5hPa 8,2°C 19,8km/h (3Bft) 7,7km/h 284° (W) 0,0l/m² 9,166klx 1,1min
15:50 9,8°C 70,8% 4,7°C 1019,6hPa 9,8°C 14,4km/h (3Bft) 6,2km/h 270° (W) 0,0l/m² 16,687klx 0,3min
15:45 9,9°C 71,9% 5,0°C 1019,6hPa 9,9°C 19,4km/h (3Bft) 6,4km/h 280° (W) 0,0l/m² 33,072klx 0,0min
15:40 9,8°C 70,7% 4,7°C 1019,6hPa 8,0°C 21,2km/h (4Bft) 9,0km/h 288° (W) 0,0l/m² 59,052klx 0,0min
15:35 9,6°C 72,3% 4,8°C 1019,6hPa 7,1°C 23,4km/h (4Bft) 10,1km/h 310° (NW) 0,0l/m² 62,784klx 0,0min
15:30 9,2°C 74,6% 4,9°C 1019,7hPa 6,4°C 31,7km/h (5Bft) 10,5km/h 319° (NW) 0,0l/m² 66,538klx 0,0min
15:25 8,7°C 75,0% 4,5°C 1019,7hPa 6,1°C 29,5km/h (5Bft) 10,1km/h 330° (NW) 0,0l/m² 75,893klx 0,0min
15:20 8,4°C 77,3% 4,6°C 1019,7hPa 6,6°C 20,5km/h (4Bft) 8,8km/h 306° (NW) 0,0l/m² 41,295klx 0,0min
15:15 8,4°C 76,8% 4,6°C 1019,7hPa 5,4°C 20,5km/h (4Bft) 10,8km/h 312° (NW) 0,0l/m² 36,366klx 0,0min
15:10 8,5°C 80,6% 5,4°C 1019,8hPa 5,6°C 24,5km/h (4Bft) 10,6km/h 315° (NW) 0,0l/m² 39,908klx 0,0min
15:05 8,2°C 84,0% 5,6°C 1019,8hPa 8,2°C 14,4km/h (3Bft) 6,2km/h 315° (NW) 0,0l/m² 41,504klx 0,0min
15:00 7,8°C 81,7% 4,9°C 1019,9hPa 3,6°C 28,4km/h (4Bft) 12,8km/h 323° (NW) 0,0l/m² 37,523klx 0,0min
14:55 8,2°C 80,9% 5,1°C 1019,9hPa 4,0°C 34,2km/h (5Bft) 12,9km/h 315° (NW) 0,0l/m² 22,181klx 0,0min
14:50 8,5°C 84,6% 6,1°C 1019,7hPa 4,9°C 31,7km/h (5Bft) 12,0km/h 316° (NW) 0,0l/m² 33,607klx 0,0min
14:45 8,2°C 86,6% 6,0°C 1019,6hPa 8,2°C 15,8km/h (3Bft) 5,0km/h 298° (NW) 0,0l/m² 73,864klx 0,0min
14:40 7,5°C 87,6% 5,6°C 1019,7hPa 7,5°C 15,5km/h (3Bft) 6,3km/h 299° (NW) 0,0l/m² 73,556klx 0,0min
14:35 7,1°C 89,7% 5,5°C 1019,7hPa 7,1°C 12,6km/h (3Bft) 6,0km/h 295° (NW) 0,0l/m² 90,110klx 0,0min
14:30 6,9°C 88,9% 5,2°C 1019,8hPa 6,8°C 18,4km/h (3Bft) 6,6km/h 311° (NW) 0,0l/m² 30,332klx 0,0min
14:25 7,1°C 89,6% 5,4°C 1019,8hPa 7,1°C 14,8km/h (3Bft) 6,2km/h 305° (NW) 0,0l/m² 22,087klx 0,0min
14:20 7,2°C 87,7% 5,3°C 1019,8hPa 4,7°C 21,2km/h (4Bft) 9,7km/h 309° (NW) 0,1l/m² 17,900klx 3,8min
14:15 7,5°C 87,2% 5,5°C 1019,8hPa 5,8°C 21,2km/h (4Bft) 8,6km/h 303° (NW) 0,1l/m² 14,221klx 3,2min
14:10 7,6°C 88,0% 5,8°C 1019,6hPa 7,6°C 13,3km/h (3Bft) 5,4km/h 264° (W) 0,0l/m² 38,485klx 0,2min
14:05 7,6°C 89,6% 6,0°C 1019,6hPa 7,6°C 8,3km/h (2Bft) 4,1km/h 268° (W) 0,0l/m² 33,956klx 0,0min
14:00 7,5°C 90,4% 6,0°C 1019,6hPa 7,5°C 13,3km/h (3Bft) 3,9km/h 313° (NW) 0,0l/m² 46,203klx 0,0min
13:55 7,1°C 91,6% 5,8°C 1019,6hPa 6,9°C 13,7km/h (3Bft) 6,7km/h 330° (NW) 0,0l/m² 88,165klx 0,0min
13:50 6,9°C 92,6% 5,7°C 1019,7hPa 6,6°C 15,5km/h (3Bft) 6,7km/h 314° (NW) 0,0l/m² 88,767klx 0,0min
13:45 6,8°C 93,8% 5,8°C 1019,7hPa 6,8°C 12,6km/h (3Bft) 5,1km/h 305° (NW) 0,0l/m² 81,391klx 2,5min
13:40 6,3°C 93,6% 5,4°C 1019,7hPa 6,3°C 5,8km/h (1Bft) 2,9km/h 328° (NW) 0,0l/m² 46,368klx 5,0min
13:35 5,9°C 92,6% 4,8°C 1019,7hPa 5,9°C 5,4km/h (1Bft) 2,7km/h 346° (N) 0,0l/m² 23,717klx 5,0min
13:30 5,7°C 91,6% 4,4°C 1019,7hPa 5,7°C 7,6km/h (2Bft) 3,1km/h 324° (NW) 0,2l/m² 12,876klx 5,0min
13:25 5,8°C 88,1% 3,9°C 1019,8hPa 4,8°C 22,3km/h (4Bft) 7,5km/h 327° (NW) 0,3l/m² 4,686klx 5,0min
13:20 6,7°C 83,7% 4,1°C 1019,8hPa 2,1°C 30,2km/h (5Bft) 13,0km/h 329° (NW) 0,3l/m² 4,541klx 5,0min
13:15 7,9°C 78,8% 4,5°C 1019,7hPa 3,0°C 32,0km/h (5Bft) 14,3km/h 334° (NW) 0,0l/m² 4,912klx 2,5min
13:10 8,3°C 79,1% 4,9°C 1019,4hPa 6,4°C 31,7km/h (5Bft) 9,0km/h 333° (NW) 0,0l/m² 19,263klx 0,0min
13:05 8,2°C 80,2% 5,0°C 1019,3hPa 8,2°C 12,2km/h (3Bft) 4,9km/h 314° (NW) 0,0l/m² 20,797klx 0,0min
13:00 8,6°C 78,6% 5,1°C 1019,3hPa 8,6°C 9,4km/h (2Bft) 4,4km/h 311° (NW) 0,0l/m² 11,780klx 0,0min
12:55 9,3°C 77,9% 5,7°C 1019,3hPa 8,7°C 15,1km/h (3Bft) 7,3km/h 322° (NW) 0,0l/m² 24,602klx 0,0min
12:50 9,6°C 80,3% 6,4°C 1019,3hPa 9,3°C 14,0km/h (3Bft) 6,9km/h 332° (NW) 0,0l/m² 56,617klx 0,0min
12:45 9,0°C 84,7% 6,6°C 1019,4hPa 8,7°C 13,0km/h (3Bft) 6,9km/h 330° (NW) 0,0l/m² 86,536klx 0,0min
12:40 7,7°C 87,2% 5,7°C 1019,4hPa 7,7°C 11,2km/h (2Bft) 6,0km/h 328° (NW) 0,0l/m² 68,914klx 0,0min
12:35 7,2°C 86,5% 5,0°C 1019,3hPa 6,7°C 16,6km/h (3Bft) 7,0km/h 322° (NW) 0,0l/m² 30,078klx 0,0min
12:30 7,2°C 84,6% 4,7°C 1019,4hPa 4,9°C 19,8km/h (3Bft) 9,4km/h 317° (NW) 0,0l/m² 16,279klx 4,9min
12:25 7,3°C 82,4% 4,5°C 1019,3hPa 6,6°C 14,0km/h (3Bft) 7,3km/h 316° (NW) 0,0l/m² 5,243klx 0,7min
12:20 7,8°C 80,4% 4,7°C 1019,3hPa 7,8°C 14,8km/h (3Bft) 5,9km/h 315° (NW) 0,0l/m² 4,625klx 0,0min
12:15 8,6°C 77,4% 4,8°C 1019,2hPa 8,0°C 18,0km/h (3Bft) 7,1km/h 305° (NW) 0,0l/m² 10,865klx 0,0min
12:10 8,9°C 77,6% 5,2°C 1019,2hPa 6,2°C 24,8km/h (4Bft) 10,3km/h 312° (NW) 0,0l/m² 41,187klx 0,0min
12:05 8,7°C 79,0% 5,3°C 1019,2hPa 7,0°C 21,2km/h (4Bft) 8,8km/h 317° (NW) 0,0l/m² 41,711klx 0,0min
12:00 8,5°C 82,2% 5,6°C 1019,3hPa 7,2°C 15,5km/h (3Bft) 8,1km/h 338° (N) 0,0l/m² 45,704klx 0,0min
11:55 7,7°C 84,7% 5,3°C 1019,3hPa 7,1°C 18,0km/h (3Bft) 7,2km/h 313° (NW) 0,0l/m² 55,162klx 0,0min
11:50 7,5°C 84,6% 5,1°C 1019,4hPa 6,5°C 18,4km/h (3Bft) 7,7km/h 310° (NW) 0,0l/m² 26,663klx 0,0min
11:45 7,9°C 85,6% 5,7°C 1019,4hPa 7,1°C 15,8km/h (3Bft) 7,5km/h 329° (NW) 0,0l/m² 17,595klx 0,0min
11:40 7,7°C 88,4% 5,9°C 1019,4hPa 5,8°C 19,8km/h (3Bft) 8,9km/h 330° (NW) 0,0l/m² 44,808klx 0,0min
11:35 7,1°C 89,8% 5,6°C 1019,4hPa 5,6°C 18,4km/h (3Bft) 8,4km/h 341° (N) 0,0l/m² 39,031klx 0,0min
11:30 6,7°C 90,5% 5,3°C 1019,4hPa 5,0°C 17,3km/h (3Bft) 8,6km/h 343° (N) 0,0l/m² 30,825klx 0,0min
11:25 6,4°C 89,4% 4,8°C 1019,4hPa 5,3°C 16,9km/h (3Bft) 7,7km/h 322° (NW) 0,0l/m² 16,948klx 0,0min
11:20 6,5°C 89,4% 4,9°C 1019,3hPa 5,5°C 19,8km/h (3Bft) 7,6km/h 317° (NW) 0,0l/m² 11,129klx 0,0min
11:15 6,6°C 90,0% 5,0°C 1019,3hPa 6,6°C 13,7km/h (3Bft) 5,6km/h 322° (NW) 0,0l/m² 13,023klx 0,0min
11:10 6,4°C 90,2% 4,9°C 1019,3hPa 5,2°C 16,6km/h (3Bft) 7,9km/h 325° (NW) 0,0l/m² 20,101klx 0,0min
11:05 6,2°C 90,2% 4,7°C 1019,2hPa 5,7°C 14,8km/h (3Bft) 7,0km/h 317° (NW) 0,0l/m² 17,685klx 0,0min
11:00 6,3°C 90,5% 4,8°C 1019,1hPa 6,3°C 12,2km/h (3Bft) 4,5km/h 334° (NW) 0,0l/m² 10,167klx 0,0min
10:55 6,3°C 91,4% 5,0°C 1019,1hPa 5,3°C 14,4km/h (3Bft) 7,6km/h 328° (NW) 0,0l/m² 15,006klx 0,0min
10:50 6,1°C 91,7% 4,9°C 1019,0hPa 4,2°C 16,9km/h (3Bft) 8,8km/h 333° (NW) 0,0l/m² 16,877klx 0,0min
10:45 5,9°C 91,7% 4,6°C 1018,9hPa 4,3°C 16,6km/h (3Bft) 8,3km/h 329° (NW) 0,0l/m² 14,384klx 0,0min
10:40 5,8°C 91,5% 4,5°C 1018,8hPa 3,4°C 22,0km/h (4Bft) 9,4km/h 327° (NW) 0,0l/m² 15,275klx 0,0min
10:35 5,8°C 91,5% 4,5°C 1018,7hPa 2,3°C 24,1km/h (4Bft) 10,9km/h 332° (NW) 0,0l/m² 8,553klx 0,0min
10:30 5,8°C 91,0% 4,4°C 1018,7hPa 4,5°C 20,2km/h (4Bft) 7,9km/h 323° (NW) 0,0l/m² 3,770klx 1,7min
10:25 5,9°C 90,4% 4,4°C 1018,6hPa 5,0°C 14,8km/h (3Bft) 7,4km/h 320° (NW) 0,0l/m² 3,263klx 0,0min
10:20 6,0°C 90,1% 4,5°C 1018,5hPa 6,0°C 13,7km/h (3Bft) 6,3km/h 312° (NW) 0,0l/m² 3,988klx 0,0min
10:15 6,1°C 90,6% 4,7°C 1018,4hPa 5,3°C 15,8km/h (3Bft) 7,3km/h 310° (NW) 0,0l/m² 7,172klx 0,0min
10:10 6,1°C 91,6% 4,9°C 1018,4hPa 6,1°C 13,3km/h (3Bft) 6,2km/h 321° (NW) 0,0l/m² 11,073klx 0,0min
10:05 6,0°C 91,9% 4,8°C 1018,4hPa 6,0°C 12,6km/h (3Bft) 5,9km/h 319° (NW) 0,0l/m² 13,322klx 0,0min
10:00 5,9°C 92,1% 4,7°C 1018,3hPa 5,9°C 9,4km/h (2Bft) 4,0km/h 323° (NW) 0,0l/m² 10,217klx 0,0min
09:55 5,8°C 91,9% 4,6°C 1018,2hPa 5,0°C 14,0km/h (3Bft) 7,4km/h 336° (NW) 0,0l/m² 7,617klx 0,0min
09:50 5,9°C 91,9% 4,7°C 1018,2hPa 5,7°C 18,7km/h (3Bft) 6,7km/h 313° (NW) 0,0l/m² 7,726klx 0,0min
09:45 5,9°C 92,4% 4,8°C 1018,1hPa 5,6°C 15,5km/h (3Bft) 6,8km/h 324° (NW) 0,0l/m² 9,872klx 0,0min
09:40 5,9°C 93,0% 4,9°C 1018,1hPa 5,9°C 13,0km/h (3Bft) 4,3km/h 329° (NW) 0,0l/m² 13,858klx 0,0min
09:35 5,9°C 93,5% 4,9°C 1018,0hPa 5,7°C 14,0km/h (3Bft) 6,6km/h 326° (NW) 0,0l/m² 14,666klx 0,0min
09:30 5,8°C 93,6% 4,8°C 1017,9hPa 5,8°C 11,9km/h (2Bft) 6,4km/h 321° (NW) 0,0l/m² 10,328klx 0,0min
09:25 5,8°C 93,6% 4,8°C 1017,8hPa 5,8°C 9,7km/h (2Bft) 5,3km/h 308° (NW) 0,0l/m² 7,765klx 0,0min
09:20 5,7°C 93,9% 4,8°C 1017,8hPa 5,7°C 10,8km/h (2Bft) 4,9km/h 320° (NW) 0,0l/m² 11,183klx 0,0min
09:15 5,7°C 93,8% 4,7°C 1017,7hPa 5,7°C 9,4km/h (2Bft) 5,0km/h 327° (NW) 0,0l/m² 9,734klx 0,0min
09:10 5,7°C 94,3% 4,9°C 1017,6hPa 5,7°C 10,8km/h (2Bft) 4,9km/h 324° (NW) 0,0l/m² 11,807klx 0,0min
09:05 5,6°C 94,2% 4,8°C 1017,6hPa 5,6°C 7,6km/h (2Bft) 3,6km/h 322° (NW) 0,0l/m² 8,871klx 0,0min
09:00 5,5°C 93,9% 4,6°C 1017,6hPa 5,5°C 9,7km/h (2Bft) 4,2km/h 329° (NW) 0,0l/m² 7,988klx 0,0min
08:55 5,5°C 93,4% 4,5°C 1017,5hPa 5,1°C 11,9km/h (2Bft) 6,9km/h 325° (NW) 0,0l/m² 5,686klx 2,1min
08:50 5,5°C 92,8% 4,4°C 1017,4hPa 5,5°C 11,9km/h (2Bft) 5,0km/h 323° (NW) 0,1l/m² 6,335klx 5,0min
08:45 5,5°C 92,1% 4,3°C 1017,4hPa 5,5°C 11,5km/h (2Bft) 5,8km/h 318° (NW) 0,1l/m² 5,690klx 4,7min
08:40 5,5°C 91,5% 4,2°C 1017,3hPa 5,5°C 11,2km/h (2Bft) 5,1km/h 317° (NW) 0,0l/m² 5,017klx 0,0min
08:35 5,6°C 91,7% 4,3°C 1017,3hPa 4,5°C 18,4km/h (3Bft) 7,7km/h 330° (NW) 0,0l/m² 4,801klx 0,0min
08:30 5,6°C 91,9% 4,4°C 1017,2hPa 5,6°C 16,9km/h (3Bft) 6,4km/h 314° (NW) 0,0l/m² 4,856klx 0,0min
08:25 5,7°C 92,3% 4,5°C 1017,1hPa 4,4°C 16,6km/h (3Bft) 7,9km/h 324° (NW) 0,0l/m² 3,880klx 0,0min
08:20 5,7°C 92,7% 4,6°C 1017,0hPa 5,4°C 13,7km/h (3Bft) 6,7km/h 335° (NW) 0,0l/m² 4,050klx 0,0min
08:15 5,6°C 92,7% 4,5°C 1016,9hPa 5,6°C 12,2km/h (3Bft) 5,5km/h 322° (NW) 0,0l/m² 4,549klx 0,0min
08:10 5,6°C 92,7% 4,5°C 1016,9hPa 5,6°C 14,8km/h (3Bft) 6,1km/h 313° (NW) 0,0l/m² 4,471klx 0,0min
08:05 5,5°C 93,0% 4,5°C 1016,8hPa 5,5°C 15,8km/h (3Bft) 6,2km/h 311° (NW) 0,0l/m² 4,501klx 0,0min
08:00 5,5°C 92,9% 4,4°C 1016,7hPa 4,4°C 18,7km/h (3Bft) 7,6km/h 306° (NW) 0,0l/m² 5,403klx 0,0min
07:55 5,4°C 93,3% 4,4°C 1016,7hPa 5,4°C 16,2km/h (3Bft) 6,5km/h 311° (NW) 0,0l/m² 4,022klx 0,0min
07:50 5,4°C 93,4% 4,4°C 1016,6hPa 5,4°C 13,3km/h (3Bft) 5,6km/h 312° (NW) 0,0l/m² 4,230klx 0,0min
07:45 5,3°C 93,7% 4,4°C 1016,5hPa 5,3°C 15,8km/h (3Bft) 6,2km/h 312° (NW) 0,0l/m² 3,771klx 0,0min
07:40 5,3°C 93,7% 4,3°C 1016,5hPa 5,3°C 8,6km/h (2Bft) 4,0km/h 313° (NW) 0,0l/m² 3,194klx 0,0min
07:35 5,2°C 93,7% 4,2°C 1016,4hPa 5,2°C 15,5km/h (3Bft) 5,1km/h 314° (NW) 0,0l/m² 2,779klx 0,0min
07:30 5,1°C 93,7% 4,2°C 1016,3hPa 5,1°C 10,4km/h (2Bft) 4,2km/h 310° (NW) 0,0l/m² 2,816klx 0,0min
07:25 5,1°C 94,0% 4,2°C 1016,3hPa 4,7°C 15,8km/h (3Bft) 6,9km/h 310° (NW) 0,0l/m² 2,429klx 0,0min
07:20 5,1°C 94,5% 4,3°C 1016,2hPa 5,1°C 9,7km/h (2Bft) 3,7km/h 308° (NW) 0,0l/m² 1,980klx 1,1min
07:15 5,1°C 94,6% 4,3°C 1016,2hPa 5,1°C 10,4km/h (2Bft) 4,2km/h 310° (NW) 0,0l/m² 1,314klx 0,0min
07:10 5,0°C 94,7% 4,2°C 1016,1hPa 5,0°C 10,1km/h (2Bft) 4,5km/h 310° (NW) 0,0l/m² 0,971klx 0,0min
07:05 5,0°C 95,1% 4,3°C 1016,1hPa 5,0°C 10,4km/h (2Bft) 4,8km/h 318° (NW) 0,0l/m² 0,899klx 0,0min
07:00 5,0°C 95,3% 4,3°C 1016,1hPa 5,0°C 8,6km/h (2Bft) 4,3km/h 316° (NW) 0,0l/m² 0,778klx 0,0min
06:55 5,0°C 95,5% 4,3°C 1016,0hPa 5,0°C 8,3km/h (2Bft) 3,9km/h 320° (NW) 0,0l/m² 1,143klx 0,0min
06:50 4,9°C 95,7% 4,3°C 1015,9hPa 4,9°C 10,1km/h (2Bft) 5,0km/h 317° (NW) 0,0l/m² 1,029klx 0,0min
06:45 4,9°C 95,9% 4,3°C 1015,9hPa 4,9°C 11,2km/h (2Bft) 4,1km/h 310° (NW) 0,0l/m² 0,763klx 0,0min
06:40 4,8°C 96,1% 4,3°C 1015,8hPa 4,8°C 11,9km/h (2Bft) 5,4km/h 316° (NW) 0,0l/m² 0,862klx 0,0min
06:35 4,8°C 96,3% 4,2°C 1015,8hPa 4,8°C 12,6km/h (3Bft) 5,4km/h 321° (NW) 0,0l/m² 0,787klx 0,0min
06:30 4,7°C 96,3% 4,1°C 1015,7hPa 4,7°C 9,4km/h (2Bft) 3,8km/h 319° (NW) 0,0l/m² 0,496klx 0,0min
06:25 4,6°C 96,2% 4,0°C 1015,7hPa 4,6°C 10,1km/h (2Bft) 4,6km/h 318° (NW) 0,0l/m² 0,282klx 0,0min
06:20 4,6°C 96,2% 4,0°C 1015,6hPa 4,6°C 11,2km/h (2Bft) 4,4km/h 317° (NW) 0,0l/m² 0,189klx 0,0min
06:15 4,6°C 96,2% 4,0°C 1015,6hPa 4,6°C 6,8km/h (2Bft) 3,3km/h 326° (NW) 0,0l/m² 0,097klx 0,0min
06:10 4,6°C 96,3% 4,0°C 1015,5hPa 4,6°C 9,0km/h (2Bft) 3,7km/h 315° (NW) 0,0l/m² 0,045klx 0,0min
06:05 4,5°C 96,2% 4,0°C 1015,4hPa 4,5°C 11,2km/h (2Bft) 5,4km/h 319° (NW) 0,0l/m² 0,021klx 0,0min
06:00 4,5°C 96,2% 3,9°C 1015,4hPa 4,5°C 9,7km/h (2Bft) 5,2km/h 325° (NW) 0,0l/m² 0,011klx 0,0min
05:55 4,4°C 96,1% 3,9°C 1015,3hPa 4,4°C 11,2km/h (2Bft) 5,0km/h 327° (NW) 0,0l/m² 0,005klx 0,0min
05:50 4,4°C 95,9% 3,8°C 1015,3hPa 4,4°C 10,4km/h (2Bft) 4,6km/h 334° (NW) 0,0l/m² 0,003klx 0,0min
05:45 4,4°C 95,7% 3,7°C 1015,2hPa 4,4°C 9,7km/h (2Bft) 5,7km/h 331° (NW) 0,0l/m² 0,001klx 0,0min
05:40 4,4°C 95,7% 3,8°C 1015,1hPa 4,4°C 9,0km/h (2Bft) 5,3km/h 327° (NW) 0,0l/m² 0,001klx 0,0min
05:35 4,5°C 95,7% 3,8°C 1015,1hPa 4,5°C 15,5km/h (3Bft) 6,1km/h 320° (NW) 0,0l/m² 0,000klx 0,0min
05:30 4,5°C 95,6% 3,8°C 1015,0hPa 4,5°C 9,7km/h (2Bft) 4,8km/h 320° (NW) 0,0l/m² 0,000klx 0,0min
05:25 4,5°C 95,5% 3,8°C 1014,9hPa 4,5°C 10,4km/h (2Bft) 5,2km/h 322° (NW) 0,0l/m² 0,000klx 0,0min
05:20 4,5°C 95,5% 3,9°C 1014,9hPa 4,5°C 9,4km/h (2Bft) 4,7km/h 320° (NW) 0,0l/m² 0,000klx 0,0min
05:15 4,6°C 95,4% 3,9°C 1014,8hPa 4,6°C 11,9km/h (2Bft) 5,2km/h 329° (NW) 0,0l/m² 0,000klx 0,0min
05:10 4,6°C 95,5% 4,0°C 1014,7hPa 3,7°C 14,0km/h (3Bft) 7,4km/h 326° (NW) 0,0l/m² 0,000klx 0,0min
05:05 4,6°C 95,4% 4,0°C 1014,7hPa 4,6°C 11,5km/h (2Bft) 3,6km/h 327° (NW) 0,0l/m² 0,000klx 0,0min
05:00 4,6°C 95,2% 3,9°C 1014,7hPa 4,6°C 10,4km/h (2Bft) 4,8km/h 324° (NW) 0,0l/m² 0,000klx 0,0min
04:55 4,6°C 95,0% 3,9°C 1014,7hPa 4,6°C 9,7km/h (2Bft) 4,8km/h 322° (NW) 0,0l/m² 0,000klx 0,0min
04:50 4,7°C 94,8% 3,9°C 1014,6hPa 4,7°C 11,5km/h (2Bft) 4,6km/h 311° (NW) 0,0l/m² 0,000klx 0,0min
04:45 4,8°C 94,9% 4,0°C 1014,6hPa 4,8°C 10,1km/h (2Bft) 4,4km/h 318° (NW) 0,0l/m² 0,000klx 0,0min
04:40 4,8°C 94,9% 4,1°C 1014,6hPa 4,7°C 13,7km/h (3Bft) 6,6km/h 319° (NW) 0,0l/m² 0,000klx 0,0min
04:35 4,9°C 95,1% 4,2°C 1014,5hPa 4,4°C 13,7km/h (3Bft) 7,0km/h 325° (NW) 0,0l/m² 0,000klx 0,0min
04:30 4,9°C 95,3% 4,2°C 1014,5hPa 4,9°C 14,8km/h (3Bft) 6,1km/h 325° (NW) 0,0l/m² 0,000klx 0,0min
04:25 4,8°C 95,3% 4,1°C 1014,5hPa 4,0°C 14,0km/h (3Bft) 7,3km/h 319° (NW) 0,0l/m² 0,000klx 0,0min
04:20 4,8°C 95,3% 4,1°C 1014,5hPa 4,8°C 18,7km/h (3Bft) 6,4km/h 320° (NW) 0,0l/m² 0,000klx 0,0min
04:15 4,7°C 95,3% 4,0°C 1014,4hPa 4,7°C 12,6km/h (3Bft) 5,5km/h 326° (NW) 0,0l/m² 0,000klx 0,0min
04:10 4,7°C 95,2% 4,0°C 1014,4hPa 4,7°C 9,0km/h (2Bft) 4,6km/h 323° (NW) 0,0l/m² 0,000klx 0,0min
04:05 4,6°C 95,0% 3,8°C 1014,3hPa 4,6°C 13,3km/h (3Bft) 5,5km/h 327° (NW) 0,0l/m² 0,000klx 0,0min
04:00 4,6°C 94,7% 3,8°C 1014,2hPa 4,6°C 9,4km/h (2Bft) 4,7km/h 325° (NW) 0,0l/m² 0,000klx 0,0min
03:55 4,6°C 94,6% 3,8°C 1014,2hPa 4,6°C 10,4km/h (2Bft) 4,4km/h 325° (NW) 0,0l/m² 0,000klx 0,0min
03:50 4,6°C 94,3% 3,7°C 1014,1hPa 4,6°C 12,2km/h (3Bft) 5,3km/h 320° (NW) 0,0l/m² 0,000klx 0,0min
03:45 4,6°C 94,1% 3,8°C 1014,1hPa 4,6°C 13,0km/h (3Bft) 5,7km/h 321° (NW) 0,0l/m² 0,000klx 0,0min
03:40 4,7°C 94,1% 3,8°C 1014,0hPa 4,7°C 13,0km/h (3Bft) 4,9km/h 323° (NW) 0,0l/m² 0,000klx 0,0min
03:35 4,8°C 94,0% 3,9°C 1013,9hPa 4,8°C 6,8km/h (2Bft) 3,4km/h 321° (NW) 0,0l/m² 0,000klx 0,0min
03:30 4,9°C 94,2% 4,0°C 1013,9hPa 4,9°C 10,1km/h (2Bft) 5,7km/h 324° (NW) 0,0l/m² 0,000klx 0,0min
03:25 4,9°C 94,3% 4,0°C 1013,8hPa 4,9°C 10,8km/h (2Bft) 6,1km/h 333° (NW) 0,0l/m² 0,000klx 0,0min
03:20 4,9°C 94,4% 4,0°C 1013,8hPa 4,9°C 11,5km/h (2Bft) 5,2km/h 328° (NW) 0,0l/m² 0,000klx 0,0min
03:15 4,8°C 94,3% 4,0°C 1013,7hPa 4,8°C 13,7km/h (3Bft) 5,0km/h 330° (NW) 0,0l/m² 0,000klx 0,0min
03:10 4,8°C 94,3% 4,0°C 1013,7hPa 4,8°C 10,8km/h (2Bft) 4,7km/h 330° (NW) 0,0l/m² 0,000klx 0,0min
03:05 4,7°C 94,1% 3,8°C 1013,6hPa 4,7°C 12,6km/h (3Bft) 6,1km/h 324° (NW) 0,0l/m² 0,000klx 0,0min
03:00 4,6°C 93,8% 3,7°C 1013,6hPa 3,6°C 15,5km/h (3Bft) 7,6km/h 322° (NW) 0,0l/m² 0,000klx 0,0min
02:55 4,7°C 93,5% 3,7°C 1013,6hPa 4,7°C 10,4km/h (2Bft) 5,0km/h 316° (NW) 0,0l/m² 0,000klx 0,0min
02:50 4,7°C 93,1% 3,7°C 1013,5hPa 4,7°C 10,1km/h (2Bft) 5,3km/h 317° (NW) 0,0l/m² 0,000klx 0,0min
02:45 4,8°C 93,0% 3,8°C 1013,5hPa 4,8°C 15,5km/h (3Bft) 5,8km/h 325° (NW) 0,0l/m² 0,000klx 0,0min
02:40 4,9°C 93,0% 3,9°C 1013,4hPa 3,8°C 18,7km/h (3Bft) 7,6km/h 322° (NW) 0,0l/m² 0,000klx 0,0min
02:35 4,9°C 93,1% 3,9°C 1013,4hPa 4,9°C 13,3km/h (3Bft) 5,9km/h 319° (NW) 0,0l/m² 0,000klx 0,0min
02:30 5,0°C 93,0% 3,9°C 1013,4hPa 5,0°C 15,8km/h (3Bft) 6,1km/h 323° (NW) 0,0l/m² 0,000klx 0,0min
02:25 5,0°C 92,8% 3,9°C 1013,4hPa 4,5°C 14,8km/h (3Bft) 7,0km/h 320° (NW) 0,0l/m² 0,000klx 0,0min
02:20 5,1°C 92,9% 4,0°C 1013,3hPa 4,7°C 12,6km/h (3Bft) 6,9km/h 324° (NW) 0,0l/m² 0,000klx 0,0min
02:15 5,1°C 93,1% 4,1°C 1013,2hPa 5,1°C 17,3km/h (3Bft) 6,0km/h 322° (NW) 0,0l/m² 0,000klx 0,0min
02:10 5,1°C 93,1% 4,1°C 1013,1hPa 5,1°C 11,9km/h (2Bft) 5,4km/h 323° (NW) 0,0l/m² 0,000klx 0,0min
02:05 5,0°C 92,9% 4,0°C 1013,0hPa 5,0°C 14,8km/h (3Bft) 5,9km/h 325° (NW) 0,0l/m² 0,000klx 0,0min
02:00 5,0°C 92,7% 3,9°C 1013,0hPa 5,0°C 15,1km/h (3Bft) 5,4km/h 320° (NW) 0,0l/m² 0,000klx 0,0min
01:55 5,0°C 92,5% 3,9°C 1013,0hPa 2,9°C 18,0km/h (3Bft) 9,0km/h 324° (NW) 0,0l/m² 0,000klx 0,0min
01:50 5,1°C 92,4% 4,0°C 1012,9hPa 4,5°C 16,9km/h (3Bft) 7,1km/h 317° (NW) 0,0l/m² 0,000klx 0,0min
01:45 5,2°C 92,5% 4,1°C 1012,9hPa 4,5°C 16,9km/h (3Bft) 7,2km/h 314° (NW) 0,0l/m² 0,000klx 0,0min
01:40 5,3°C 92,6% 4,2°C 1012,9hPa 4,9°C 18,0km/h (3Bft) 6,9km/h 321° (NW) 0,0l/m² 0,000klx 0,0min
01:35 5,4°C 92,5% 4,2°C 1012,8hPa 5,4°C 15,5km/h (3Bft) 5,6km/h 319° (NW) 0,0l/m² 0,000klx 0,0min
01:30 5,4°C 92,7% 4,3°C 1012,8hPa 5,3°C 14,0km/h (3Bft) 6,6km/h 324° (NW) 0,0l/m² 0,000klx 0,0min
01:25 5,5°C 92,9% 4,4°C 1012,7hPa 4,5°C 14,8km/h (3Bft) 7,6km/h 323° (NW) 0,0l/m² 0,000klx 0,0min
01:20 5,5°C 92,6% 4,4°C 1012,7hPa 5,5°C 13,3km/h (3Bft) 6,0km/h 326° (NW) 0,0l/m² 0,000klx 0,0min
01:15 5,5°C 92,4% 4,4°C 1012,6hPa 5,5°C 11,2km/h (2Bft) 5,9km/h 314° (NW) 0,0l/m² 0,000klx 0,0min
01:10 5,5°C 92,2% 4,4°C 1012,6hPa 4,4°C 15,8km/h (3Bft) 7,7km/h 323° (NW) 0,0l/m² 0,000klx 0,0min
01:05 5,5°C 92,3% 4,4°C 1012,5hPa 4,3°C 21,2km/h (4Bft) 7,9km/h 315° (NW) 0,0l/m² 0,000klx 0,0min
01:00 5,5°C 92,3% 4,4°C 1012,5hPa 2,4°C 22,0km/h (4Bft) 10,4km/h 317° (NW) 0,0l/m² 0,000klx 0,0min
00:55 5,6°C 92,2% 4,4°C 1012,5hPa 3,7°C 18,0km/h (3Bft) 8,7km/h 319° (NW) 0,0l/m² 0,000klx 0,0min
00:50 5,6°C 92,7% 4,5°C 1012,4hPa 3,1°C 19,8km/h (3Bft) 9,6km/h 316° (NW) 0,0l/m² 0,000klx 0,0min
00:45 5,6°C 92,9% 4,6°C 1012,4hPa 3,4°C 28,8km/h (4Bft) 9,1km/h 318° (NW) 0,0l/m² 0,000klx 0,0min
00:40 5,7°C 93,1% 4,6°C 1012,3hPa 4,2°C 16,6km/h (3Bft) 8,1km/h 315° (NW) 0,0l/m² 0,000klx 0,0min
00:35 5,7°C 93,3% 4,7°C 1012,2hPa 4,1°C 17,3km/h (3Bft) 8,4km/h 322° (NW) 0,0l/m² 0,000klx 0,0min
00:30 5,8°C 93,0% 4,7°C 1012,1hPa 5,4°C 17,6km/h (3Bft) 6,8km/h 321° (NW) 0,0l/m² 0,000klx 0,0min
00:25 5,8°C 92,6% 4,7°C 1012,1hPa 3,8°C 19,1km/h (3Bft) 8,8km/h 326° (NW) 0,0l/m² 0,000klx 1,7min
00:20 5,8°C 92,4% 4,7°C 1012,0hPa 3,8°C 21,6km/h (4Bft) 8,9km/h 328° (NW) 0,0l/m² 0,000klx 0,0min
00:15 5,8°C 92,4% 4,7°C 1012,0hPa 3,8°C 20,9km/h (4Bft) 8,9km/h 311° (NW) 0,0l/m² 0,000klx 1,5min
00:10 5,8°C 92,7% 4,7°C 1011,9hPa 3,8°C 18,7km/h (3Bft) 8,8km/h 309° (NW) 0,0l/m² 0,000klx 0,0min
00:05 5,8°C 93,3% 4,8°C 1011,8hPa 3,7°C 20,2km/h (4Bft) 8,9km/h 300° (NW) 0,0l/m² 0,000klx 0,0min
00:00 5,8°C 93,5% 4,8°C 1011,8hPa 4,6°C 17,3km/h (3Bft) 7,8km/h 318° (NW) 0,0l/m² 0,000klx 0,0min

Aktuelle Wetterdaten

20.04.2024 21:30 Uhr